Time;durP1;ratioP1;P1;durP2;ratioP2;P2;SDS_P1;SDS_P2;PMS_P1;PMS_P2;Temp;Humidity;BMP_temperature;BMP_pressure;BME280_temperature;BME280_humidity;BME280_pressure;Samples;Min_cycle;Max_cycle;Signal;HPM_P1;HPM_P2
2023/05/21 00:02:04;;;;;;;23.20;16.88;;;;;;;15.18;100.00;96737.41;10575208;28;20656;-66
2023/05/21 00:07:04;;;;;;;22.10;17.08;;;;;;;15.26;100.00;96729.38;10577098;28;20217;-66
2023/05/21 00:12:06;;;;;;;22.77;15.85;;;;;;;15.29;100.00;96727.16;10576872;28;20644;-65
2023/05/21 00:17:06;;;;;;;21.95;15.15;;;;;;;15.42;100.00;96713.31;10576929;28;20228;-65
2023/05/21 00:22:07;;;;;;;19.38;16.13;;;;;;;15.33;100.00;96711.78;10576838;28;20182;-65
2023/05/21 00:27:07;;;;;;;23.15;16.42;;;;;;;15.28;100.00;96707.06;10576635;28;20306;-66
2023/05/21 00:32:07;;;;;;;22.27;17.23;;;;;;;15.39;100.00;96697.00;10576647;28;20643;-66
2023/05/21 00:37:08;;;;;;;20.02;15.90;;;;;;;15.41;100.00;96695.81;10576656;28;20563;-65
2023/05/21 00:42:09;;;;;;;21.63;16.35;;;;;;;15.38;100.00;96698.03;10576235;28;20182;-66
2023/05/21 00:47:09;;;;;;;23.60;16.10;;;;;;;15.30;100.00;96693.69;10560521;28;20214;-65
2023/05/21 00:52:10;;;;;;;22.17;17.45;;;;;;;14.97;100.00;96697.56;10565821;28;20201;-66
2023/05/21 00:57:10;;;;;;;20.08;15.93;;;;;;;15.00;100.00;96704.28;10583786;28;20257;-65
2023/05/21 01:02:13;;;;;;;21.42;16.80;;;;;;;14.67;100.00;96704.72;10565387;28;20189;-65
2023/05/21 01:07:13;;;;;;;22.52;16.15;;;;;;;14.82;100.00;96715.22;10565733;28;20226;-66
2023/05/21 01:12:14;;;;;;;20.63;16.80;;;;;;;14.42;100.00;96723.38;10583474;28;20594;-66
2023/05/21 01:17:15;;;;;;;22.83;16.15;;;;;;;14.20;100.00;96719.81;10583147;28;20202;-66
2023/05/21 01:22:17;;;;;;;21.92;17.13;;;;;;;14.49;100.00;96720.03;10582778;28;20705;-66
2023/05/21 01:27:17;;;;;;;23.63;17.17;;;;;;;14.38;100.00;96716.84;10583181;28;20707;-66
2023/05/21 01:32:24;;;;;;;23.05;17.45;;;;;;;14.35;100.00;96716.38;10582287;28;20185;-66
2023/05/21 01:37:30;;;;;;;22.08;18.67;;;;;;;14.05;100.00;96711.06;10564069;28;20208;-65
2023/05/21 01:42:31;;;;;;;22.77;17.55;;;;;;;13.85;100.00;96702.84;10564072;28;20201;-65
2023/05/21 01:47:31;;;;;;;23.52;17.73;;;;;;;13.73;100.00;96697.97;10563465;28;20213;-66
2023/05/21 01:52:32;;;;;;;21.73;16.67;;;;;;;13.16;100.00;96696.53;10581762;28;20190;-65
2023/05/21 01:57:32;;;;;;;25.02;19.25;;;;;;;12.47;100.00;96694.50;10580523;28;20240;-66
2023/05/21 02:02:32;;;;;;;25.35;19.38;;;;;;;12.31;100.00;96702.44;10563101;28;20197;-65
2023/05/21 02:07:33;;;;;;;28.45;21.08;;;;;;;11.97;100.00;96698.22;10562734;28;20217;-65
2023/05/21 02:12:34;;;;;;;26.95;20.60;;;;;;;11.66;100.00;96698.84;10562662;28;20729;-66
2023/05/21 02:17:37;;;;;;;26.85;20.25;;;;;;;11.53;100.00;96706.38;10562557;28;20209;-64
2023/05/21 02:22:38;;;;;;;31.27;20.27;;;;;;;11.39;100.00;96702.59;10562191;28;20244;-65
2023/05/21 02:27:39;;;;;;;29.80;20.15;;;;;;;11.19;100.00;96700.28;10561887;28;20206;-65
2023/05/21 02:32:43;;;;;;;26.38;20.05;;;;;;;11.09;100.00;96704.00;10561803;28;20194;-65
2023/05/21 02:37:44;;;;;;;31.40;22.10;;;;;;;11.10;100.00;96711.69;10561549;28;20213;-65
2023/05/21 02:42:44;;;;;;;29.85;21.70;;;;;;;10.93;100.00;96705.59;10579758;28;20545;-65
2023/05/21 02:47:49;;;;;;;29.05;21.48;;;;;;;10.94;100.00;96709.88;10548592;28;20215;-65
2023/05/21 02:52:52;;;;;;;33.08;23.08;;;;;;;10.60;100.00;96697.63;10518959;28;20191;-64
2023/05/21 02:57:52;;;;;;;28.52;21.55;;;;;;;10.58;100.00;96707.44;10537300;28;20230;-66
2023/05/21 03:02:53;;;;;;;32.63;22.48;;;;;;;10.50;100.00;96702.16;10545808;28;20290;-65
2023/05/21 03:07:54;;;;;;;32.33;24.17;;;;;;;10.39;100.00;96705.03;10560019;28;20214;-65
2023/05/21 03:12:54;;;;;;;29.40;22.30;;;;;;;10.50;100.00;96716.06;10577920;28;20200;-64
2023/05/21 03:17:55;;;;;;;27.58;22.15;;;;;;;10.46;100.00;96714.75;10559729;28;20202;-65
2023/05/21 03:22:56;;;;;;;29.37;22.53;;;;;;;10.39;100.00;96713.72;10577808;28;20190;-65
2023/05/21 03:27:57;;;;;;;31.08;23.23;;;;;;;10.49;100.00;96722.28;10577941;28;20225;-65
2023/05/21 03:33:19;;;;;;;33.03;22.50;;;;;;;10.48;100.00;96720.63;10559673;28;20204;-65
2023/05/21 03:38:20;;;;;;;29.53;21.73;;;;;;;10.41;100.00;96718.78;10577968;28;20204;-65
2023/05/21 03:43:20;;;;;;;32.17;22.37;;;;;;;10.31;100.00;96709.22;10559141;28;20276;-66
2023/05/21 03:48:21;;;;;;;28.67;22.88;;;;;;;10.33;100.00;96715.16;10558754;28;20258;-65
2023/05/21 03:53:21;;;;;;;29.50;21.42;;;;;;;10.29;100.00;96713.81;10559109;28;20379;-65
2023/05/21 03:58:22;;;;;;;33.85;22.92;;;;;;;10.43;100.00;96708.97;10558451;28;20331;-64
2023/05/21 04:03:22;;;;;;;29.03;21.10;;;;;;;10.52;100.00;96702.81;10559075;28;20737;-65
2023/05/21 04:08:23;;;;;;;31.50;22.30;;;;;;;10.70;100.00;96707.97;10558738;28;20293;-66
2023/05/21 04:13:23;;;;;;;29.65;22.73;;;;;;;10.78;100.00;96715.03;10558778;28;20197;-65
2023/05/21 04:18:24;;;;;;;31.23;22.88;;;;;;;11.00;100.00;96713.66;10558806;28;20217;-66
2023/05/21 04:23:25;;;;;;;36.20;24.52;;;;;;;11.69;100.00;96721.34;10563726;28;20193;-65
2023/05/21 04:28:28;;;;;;;35.95;22.98;;;;;;;12.76;100.00;96710.69;10585218;28;20566;-66
2023/05/21 04:33:29;;;;;;;25.33;19.42;;;;;;;13.85;100.00;96706.28;10566530;28;20660;-65
2023/05/21 04:38:30;;;;;;;21.88;16.60;;;;;;;15.33;100.00;96678.28;10566561;28;20202;-65
2023/05/21 04:43:30;;;;;;;23.40;16.25;;;;;;;15.83;100.00;96674.91;10584614;28;20186;-64
2023/05/21 04:48:31;;;;;;;22.77;15.82;;;;;;;16.07;100.00;96675.50;10566159;28;20209;-65
2023/05/21 04:53:34;;;;;;;24.33;16.70;;;;;;;16.20;100.00;96681.72;10566048;28;20213;-66
2023/05/21 04:58:35;;;;;;;26.17;17.25;;;;;;;16.37;100.00;96682.22;10583645;28;20236;-66
2023/05/21 05:03:35;;;;;;;25.10;17.95;;;;;;;16.58;100.00;96681.34;10565618;28;20204;-66
2023/05/21 05:08:36;;;;;;;24.63;17.48;;;;;;;16.84;100.00;96681.66;10565334;28;20213;-65
2023/05/21 05:13:39;;;;;;;22.80;17.23;;;;;;;16.99;100.00;96678.91;10564994;28;20197;-65
2023/05/21 05:18:39;;;;;;;19.70;14.68;;;;;;;17.14;100.00;96662.88;10583377;28;20217;-66
2023/05/21 05:23:40;;;;;;;21.25;16.13;;;;;;;17.17;100.00;96655.34;10564715;28;20192;-65
2023/05/21 05:28:42;;;;;;;18.58;15.55;;;;;;;17.50;100.00;96656.41;10564786;28;20296;-66
2023/05/21 05:33:42;;;;;;;31.08;16.27;;;;;;;17.47;100.00;96644.38;10564160;28;20285;-65
2023/05/21 05:38:43;;;;;;;21.23;14.45;;;;;;;17.89;98.49;96649.56;10564260;28;20339;-65
2023/05/21 05:43:45;;;;;;;19.00;14.77;;;;;;;18.26;93.83;96639.31;10563902;28;20205;-65
2023/05/21 05:48:46;;;;;;;17.08;14.80;;;;;;;18.66;92.51;96636.56;10563654;28;20241;-66
2023/05/21 05:53:46;;;;;;;16.83;13.77;;;;;;;19.18;86.92;96610.00;10563687;28;20292;-66
2023/05/21 05:58:47;;;;;;;18.85;14.13;;;;;;;19.89;84.73;96608.91;10553209;23;20322;-68
2023/05/21 06:03:49;;;;;;;17.10;13.73;;;;;;;19.63;81.87;96588.63;10520577;28;20198;-68
2023/05/21 06:08:51;;;;;;;17.25;13.98;;;;;;;20.10;79.14;96575.75;10548944;28;20214;-68
2023/05/21 06:13:53;;;;;;;16.83;12.50;;;;;;;20.37;77.30;96572.81;10581333;28;20182;-68
2023/05/21 06:18:53;;;;;;;15.98;13.20;;;;;;;20.74;74.64;96553.34;10562925;28;20206;-68
2023/05/21 06:23:53;;;;;;;15.45;12.48;;;;;;;21.12;74.45;96562.88;10580683;28;20280;-66
2023/05/21 06:28:54;;;;;;;16.23;12.00;;;;;;;21.37;72.97;96558.16;10562409;28;20267;-67
2023/05/21 06:33:54;;;;;;;16.00;12.30;;;;;;;21.64;73.38;96580.94;10562008;28;20190;-66
2023/05/21 06:38:55;;;;;;;14.98;12.88;;;;;;;21.47;76.04;96604.75;10561896;28;20656;-65
2023/05/21 06:43:57;;;;;;;14.95;12.57;;;;;;;21.53;77.97;96628.69;10561119;28;20573;-66
2023/05/21 06:49:16;;;;;;;16.30;12.55;;;;;;;21.27;76.66;96618.38;10580656;28;20695;-66
2023/05/21 06:54:17;;;;;;;16.20;12.13;;;;;;;21.23;75.44;96610.03;10561272;28;20191;-66
2023/05/21 06:59:18;;;;;;;14.30;12.15;;;;;;;21.17;76.53;96627.75;10561128;28;20232;-66
2023/05/21 07:04:18;;;;;;;12.82;11.40;;;;;;;20.91;74.40;96602.28;10561132;28;20272;-66
2023/05/21 07:09:19;;;;;;;15.55;11.70;;;;;;;20.37;75.67;96607.41;10551598;28;20206;-65
2023/05/21 07:14:20;;;;;;;19.60;12.15;;;;;;;19.91;81.60;96648.56;10560166;28;20756;-66
2023/05/21 07:19:20;;;;;;;14.43;11.63;;;;;;;20.20;75.25;96595.69;10560074;28;20288;-65
2023/05/21 07:24:22;;;;;;;17.35;11.80;;;;;;;20.54;74.32;96596.97;10560111;28;20189;-66
2023/05/21 07:29:23;;;;;;;15.63;12.38;;;;;;;20.49;75.00;96613.59;10559976;28;20206;-65
2023/05/21 07:34:25;;;;;;;18.48;12.18;;;;;;;20.74;74.74;96618.06;10560052;28;20190;-65
2023/05/21 07:39:26;;;;;;;18.80;12.85;;;;;;;20.56;73.04;96610.84;10559640;28;20695;-66
2023/05/21 07:44:26;;;;;;;16.33;11.23;;;;;;;20.74;71.92;96595.97;10559531;28;20330;-68
2023/05/21 07:49:27;;;;;;;18.70;12.35;;;;;;;20.91;71.95;96607.59;10559198;28;20205;-67
2023/05/21 07:54:27;;;;;;;14.48;11.65;;;;;;;21.60;69.96;96591.25;10559331;28;20568;-66
2023/05/21 07:59:28;;;;;;;13.60;11.73;;;;;;;21.78;68.02;96577.03;10566209;28;20237;-66
2023/05/21 08:04:29;;;;;;;14.50;11.55;;;;;;;22.25;66.96;96582.34;10567921;28;20628;-67
2023/05/21 08:09:31;;;;;;;16.10;11.63;;;;;;;22.51;67.04;96587.44;10551092;28;20296;-66
2023/05/21 08:14:31;;;;;;;15.80;10.40;;;;;;;21.46;64.56;96541.84;10567501;28;20185;-66
2023/05/21 08:19:32;;;;;;;13.52;10.40;;;;;;;22.23;65.66;96581.75;10567282;28;20689;-67
2023/05/21 08:24:32;;;;;;;13.65;10.40;;;;;;;23.09;63.23;96559.75;10567244;28;20292;-66
2023/05/21 08:29:33;;;;;;;12.50;10.93;;;;;;;22.92;62.02;96546.28;10566944;28;20694;-64
2023/05/21 08:34:34;;;;;;;15.38;10.43;;;;;;;22.04;61.57;96526.94;10566996;28;20182;-66
2023/05/21 08:39:50;;;;;;;14.43;10.82;;;;;;;21.71;62.60;96536.31;10562740;28;20214;-66
2023/05/21 08:44:51;;;;;;;12.30;10.05;;;;;;;21.90;61.89;96535.16;10541199;28;20210;-65
2023/05/21 08:49:53;;;;;;;15.35;11.13;;;;;;;22.15;64.47;96594.66;10505998;28;20210;-66
2023/05/21 08:54:55;;;;;;;13.65;10.38;;;;;;;23.39;61.06;96544.47;10542175;28;20186;-66
2023/05/21 08:59:56;;;;;;;10.43;9.35;;;;;;;24.29;58.03;96533.72;10556117;28;20234;-66
2023/05/21 09:05:02;;;;;;;13.77;9.38;;;;;;;24.43;55.36;96494.03;10531725;28;20210;-66
2023/05/21 09:10:08;;;;;;;9.65;8.65;;;;;;;23.75;55.07;96476.28;10556531;28;20753;-66
2023/05/21 09:15:09;;;;;;;13.82;9.35;;;;;;;23.64;56.21;96498.59;10546246;28;20193;-64
2023/05/21 09:20:16;;;;;;;11.30;9.00;;;;;;;24.48;54.48;96491.41;10522347;28;20289;-66
2023/05/21 09:25:29;;;;;;;12.05;8.80;;;;;;;24.24;52.34;96448.00;10541742;28;20206;-66
2023/05/21 09:30:33;;;;;;;13.45;8.57;;;;;;;24.62;52.30;96462.38;10563963;28;20263;-66
2023/05/21 09:35:34;;;;;;;11.68;8.73;;;;;;;24.25;53.62;96485.25;10581707;28;20185;-64
2023/05/21 09:40:34;;;;;;;11.45;9.40;;;;;;;25.05;53.89;96503.50;10563083;28;20190;-67
2023/05/21 09:45:35;;;;;;;9.65;8.65;;;;;;;23.93;52.08;96439.63;10580991;28;20217;-66
2023/05/21 09:50:36;;;;;;;10.10;9.05;;;;;;;24.50;52.97;96473.19;10543359;28;20186;-67
2023/05/21 09:55:36;;;;;;;11.93;9.00;;;;;;;25.24;53.98;96507.44;10558812;28;20182;-67
2023/05/21 10:00:37;;;;;;;11.82;9.20;;;;;;;25.63;52.24;96484.94;10546302;28;20234;-66
2023/05/21 10:05:37;;;;;;;9.90;8.77;;;;;;;25.01;50.86;96435.38;10538627;28;20218;-65
2023/05/21 10:10:38;;;;;;;10.43;9.20;;;;;;;24.90;52.66;96478.19;10553609;28;20683;-65
2023/05/21 10:15:42;;;;;;;11.13;9.68;;;;;;;25.92;49.67;96442.44;10563185;28;20231;-66
2023/05/21 10:20:43;;;;;;;12.75;9.98;;;;;;;25.03;50.90;96434.06;10551079;28;20194;-66
2023/05/21 10:25:44;;;;;;;12.02;10.18;;;;;;;25.25;53.75;96500.19;10538646;28;20226;-66
2023/05/21 10:30:45;;;;;;;13.48;8.90;;;;;;;26.03;48.68;96402.25;10520524;28;20198;-67
2023/05/21 10:35:46;;;;;;;11.88;8.93;;;;;;;25.99;51.27;96477.94;10538322;28;20195;-67
2023/05/21 10:40:47;;;;;;;12.88;9.90;;;;;;;26.33;50.31;96461.41;10538219;28;20186;-67
2023/05/21 10:46:24;;;;;;;12.73;9.18;;;;;;;27.40;46.11;96400.00;10537548;28;20214;-68
2023/05/21 10:51:38;;;;;;;12.43;8.60;;;;;;;27.27;46.23;96392.47;10537877;28;20190;-67
2023/05/21 10:56:45;;;;;;;9.50;8.13;;;;;;;26.01;48.38;96415.16;10519076;28;20302;-68
2023/05/21 11:01:45;;;;;;;10.40;9.02;;;;;;;26.64;49.50;96449.94;10519228;28;20190;-68
2023/05/21 11:06:49;;;;;;;13.70;9.00;;;;;;;27.25;48.37;96449.22;10560820;28;20229;-68
2023/05/21 11:11:51;;;;;;;11.35;9.10;;;;;;;29.16;43.86;96404.19;10578828;28;20638;-68
2023/05/21 11:16:52;;;;;;;11.82;9.00;;;;;;;28.37;45.92;96415.00;10578441;28;20206;-69
2023/05/21 11:21:54;;;;;;;11.40;9.13;;;;;;;28.37;45.04;96395.34;10578507;28;20603;-68
2023/05/21 11:26:57;;;;;;;11.52;8.73;;;;;;;27.97;46.96;96418.72;10578313;28;20487;-69
2023/05/21 11:32:01;;;;;;;13.63;9.55;;;;;;;27.66;44.60;96355.00;10577949;28;20687;-68
2023/05/21 11:37:17;;;;;;;11.07;8.90;;;;;;;26.31;47.06;96374.94;10578093;28;20205;-67
2023/05/21 11:42:29;;;;;;;12.48;9.18;;;;;;;25.76;52.55;96489.06;10577957;28;20193;-67
2023/05/21 11:47:30;;;;;;;13.35;11.10;;;;;;;26.12;52.85;96500.00;10577904;28;20225;-66
2023/05/21 11:52:31;;;;;;;15.73;11.10;;;;;;;27.39;50.79;96482.56;10577522;28;20196;-66
2023/05/21 11:57:32;;;;;;;12.45;10.68;;;;;;;27.65;50.62;96479.84;10585736;22;20321;-66
2023/05/21 12:02:32;;;;;;;13.53;10.60;;;;;;;27.06;51.09;96462.41;10533159;28;20289;-66
2023/05/21 12:07:33;;;;;;;11.63;9.67;;;;;;;27.48;49.68;96449.75;10577141;28;20483;-67
2023/05/21 12:12:33;;;;;;;9.60;8.70;;;;;;;27.05;48.30;96415.88;10577537;28;20432;-67
2023/05/21 12:17:34;;;;;;;12.10;8.80;;;;;;;27.22;48.06;96417.47;10558797;28;20313;-66
2023/05/21 12:22:34;;;;;;;9.98;8.93;;;;;;;28.23;45.03;96376.28;10559321;28;20197;-66
2023/05/21 12:27:35;;;;;;;9.27;8.37;;;;;;;26.77;47.22;96382.28;10576836;28;20214;-66
2023/05/21 12:32:42;;;;;;;12.23;10.43;;;;;;;27.16;47.53;96397.84;10558720;28;20445;-67
2023/05/21 12:37:42;;;;;;;10.38;8.75;;;;;;;26.98;49.08;96433.34;10567306;28;20210;-65
2023/05/21 12:42:43;;;;;;;10.73;9.30;;;;;;;29.04;48.90;96482.00;10555204;28;20187;-66
2023/05/21 12:47:47;;;;;;;10.77;9.60;;;;;;;29.28;45.71;96433.53;10560037;28;20482;-66
2023/05/21 12:52:47;;;;;;;11.63;9.25;;;;;;;27.98;47.90;96429.19;10552605;28;20201;-66
2023/05/21 12:57:50;;;;;;;17.60;9.20;;;;;;;28.66;47.63;96437.78;10541799;28;20230;-66
2023/05/21 13:02:50;;;;;;;14.40;10.10;;;;;;;27.89;49.81;96452.38;10542025;28;20452;-66
2023/05/21 13:07:51;;;;;;;11.43;8.57;;;;;;;28.20;48.46;96442.28;10557826;28;20740;-65
2023/05/21 13:12:51;;;;;;;10.30;9.13;;;;;;;30.00;44.01;96400.41;10547574;28;20871;-66
2023/05/21 13:17:51;;;;;;;9.40;8.03;;;;;;;29.96;44.24;96391.25;10559040;28;20912;-66
2023/05/21 13:22:52;;;;;;;10.20;8.43;;;;;;;29.61;44.35;96381.66;10559770;28;21096;-66
2023/05/21 13:27:53;;;;;;;12.10;8.45;;;;;;;30.79;43.03;96382.03;10558668;28;21083;-66
2023/05/21 13:32:53;;;;;;;9.98;8.25;;;;;;;31.02;41.58;96358.66;10558363;28;20209;-66
2023/05/21 13:37:54;;;;;;;13.27;10.47;;;;;;;30.77;43.10;96379.59;10539159;28;20215;-66
2023/05/21 13:42:54;;;;;;;11.27;9.90;;;;;;;30.99;43.43;96407.97;10550037;28;20444;-66
2023/05/21 13:47:55;;;;;;;11.68;10.02;;;;;;;30.70;41.77;96347.50;10581169;28;20489;-66
2023/05/21 13:52:55;;;;;;;11.02;9.77;;;;;;;30.37;43.56;96382.59;10569382;28;20195;-66
2023/05/21 13:57:55;;;;;;;12.77;9.70;;;;;;;30.43;44.35;96399.59;10537618;28;20249;-66
2023/05/21 14:02:56;;;;;;;12.00;9.63;;;;;;;32.27;41.29;96385.81;10554860;28;20577;-67
2023/05/21 14:07:56;;;;;;;11.57;10.10;;;;;;;30.79;43.24;96366.59;10581094;28;20475;-66
2023/05/21 14:12:56;;;;;;;10.57;9.43;;;;;;;32.16;40.40;96344.56;10575824;28;20467;-67
2023/05/21 14:17:57;;;;;;;12.07;9.37;;;;;;;30.25;42.92;96336.31;10560436;28;20448;-67
2023/05/21 14:22:57;;;;;;;10.17;9.07;;;;;;;30.35;43.41;96356.97;10564506;28;20503;-67
2023/05/21 14:27:57;;;;;;;10.30;9.07;;;;;;;30.84;42.07;96333.25;10558095;28;21006;-66
2023/05/21 14:32:58;;;;;;;10.47;8.20;;;;;;;32.00;38.53;96300.72;10559566;28;20447;-67
2023/05/21 14:37:58;;;;;;;11.23;8.53;;;;;;;33.74;35.91;96314.56;10550405;28;20494;-67
2023/05/21 14:42:59;;;;;;;9.63;8.63;;;;;;;31.81;39.23;96298.16;10537841;28;20798;-66
2023/05/21 14:48:07;;;;;;;11.82;9.13;;;;;;;32.38;39.60;96335.66;10537315;28;20921;-66
2023/05/21 14:53:08;;;;;;;10.43;8.88;;;;;;;33.23;39.61;96378.41;10537442;28;20647;-67
2023/05/21 14:58:09;;;;;;;9.07;8.15;;;;;;;34.10;37.53;96348.81;10537081;28;20280;-67
2023/05/21 15:03:09;;;;;;;9.57;8.25;;;;;;;31.14;41.31;96329.22;10536949;28;20239;-67
2023/05/21 15:08:09;;;;;;;13.43;9.13;;;;;;;31.57;41.14;96342.50;10537055;28;20252;-66
2023/05/21 15:13:10;;;;;;;10.85;8.82;;;;;;;33.61;37.55;96334.47;10537866;28;20444;-67
2023/05/21 15:18:10;;;;;;;10.83;7.97;;;;;;;31.85;38.93;96292.94;10536697;28;20693;-66
2023/05/21 15:23:10;;;;;;;8.05;7.35;;;;;;;32.35;38.13;96285.56;10536485;28;21001;-67
2023/05/21 15:28:11;;;;;;;8.77;7.03;;;;;;;32.79;36.61;96263.34;10537875;28;20249;-66
2023/05/21 15:33:11;;;;;;;10.25;7.15;;;;;;;30.85;39.85;96270.72;10546414;28;20441;-67
2023/05/21 15:38:12;;;;;;;7.87;7.17;;;;;;;29.88;42.09;96297.38;10535722;28;20973;-67
2023/05/21 15:43:12;;;;;;;8.00;7.20;;;;;;;29.38;41.92;96259.91;10535834;28;20507;-66
2023/05/21 15:48:13;;;;;;;12.23;6.78;;;;;;;30.47;40.98;96288.97;10535317;28;20479;-67
2023/05/21 15:53:13;;;;;;;8.50;7.28;;;;;;;29.25;43.90;96309.19;10535617;28;20233;-67
2023/05/21 15:58:14;;;;;;;9.85;7.32;;;;;;;28.66;45.23;96319.16;10535372;28;20222;-67
2023/05/21 16:03:15;;;;;;;10.75;7.47;;;;;;;26.47;49.44;96337.38;10535091;28;20203;-67
2023/05/21 16:08:15;;;;;;;9.90;6.90;;;;;;;24.76;51.50;96332.31;10535352;28;20214;-66
2023/05/21 16:13:15;;;;;;;9.70;7.00;;;;;;;24.44;53.01;96367.09;10534839;28;20195;-66
2023/05/21 16:18:16;;;;;;;10.57;6.27;;;;;;;24.58;52.30;96354.94;10538459;28;20202;-66
2023/05/21 16:23:16;;;;;;;7.00;6.03;;;;;;;24.77;51.43;96351.88;10543413;28;20467;-67
2023/05/21 16:28:17;;;;;;;7.70;6.90;;;;;;;25.12;50.72;96359.38;10543126;28;20506;-67
2023/05/21 16:33:18;;;;;;;11.95;6.78;;;;;;;24.79;52.62;96380.00;10543287;28;20284;-66
2023/05/21 16:38:18;;;;;;;9.43;5.93;;;;;;;25.35;50.09;96347.47;10542763;28;20211;-66
2023/05/21 16:43:19;;;;;;;6.68;5.78;;;;;;;24.92;51.13;96349.31;10542956;28;20187;-66
2023/05/21 16:48:19;;;;;;;8.95;6.50;;;;;;;24.87;51.29;96354.63;10552745;28;20225;-67
2023/05/21 16:53:20;;;;;;;9.63;6.75;;;;;;;24.58;51.23;96354.94;10542437;28;20190;-67
2023/05/21 16:58:20;;;;;;;9.27;6.13;;;;;;;24.64;50.37;96345.06;10541939;28;20226;-67
2023/05/21 17:03:20;;;;;;;8.43;6.47;;;;;;;23.88;52.17;96353.97;10541623;28;20202;-67
2023/05/21 17:08:21;;;;;;;9.68;6.63;;;;;;;23.45;51.29;96333.09;10544699;28;20218;-65
2023/05/21 17:13:21;;;;;;;11.20;6.20;;;;;;;22.88;52.09;96330.66;10541191;28;20195;-66
2023/05/21 17:18:21;;;;;;;8.30;6.22;;;;;;;22.57;53.89;96384.41;10541376;28;20291;-65
2023/05/21 17:23:22;;;;;;;7.07;6.38;;;;;;;22.28;54.12;96375.56;10540992;28;20190;-65
2023/05/21 17:28:22;;;;;;;7.45;6.00;;;;;;;21.92;54.38;96375.72;10540370;28;20279;-65
2023/05/21 17:33:23;;;;;;;7.57;6.07;;;;;;;21.76;54.36;96373.81;10540601;28;20203;-65
2023/05/21 17:38:23;;;;;;;10.85;5.75;;;;;;;21.83;54.50;96384.34;10540301;28;20207;-66
2023/05/21 17:43:25;;;;;;;8.15;6.10;;;;;;;21.66;54.09;96369.06;10540228;28;20202;-66
2023/05/21 17:48:25;;;;;;;8.32;6.07;;;;;;;21.45;54.80;96383.78;10539890;28;20591;-66
2023/05/21 17:53:26;;;;;;;9.10;6.20;;;;;;;21.40;55.55;96397.00;10539905;28;20194;-65
2023/05/21 17:58:26;;;;;;;8.32;6.32;;;;;;;21.23;55.99;96401.44;10569375;22;20298;-66
2023/05/21 18:03:26;;;;;;;8.80;6.30;;;;;;;21.21;56.44;96428.31;10579497;28;20194;-66
2023/05/21 18:08:27;;;;;;;8.18;6.53;;;;;;;21.06;56.99;96425.25;10592879;27;20281;-66
2023/05/21 18:13:28;;;;;;;9.93;6.50;;;;;;;20.66;59.33;96464.78;10623245;27;20281;-65
2023/05/21 18:18:28;;;;;;;7.95;6.32;;;;;;;20.44;60.18;96469.78;10622669;27;20270;-65
2023/05/21 18:23:30;;;;;;;8.25;6.78;;;;;;;20.39;59.98;96466.16;10622750;27;20185;-65
2023/05/21 18:28:31;;;;;;;9.48;6.40;;;;;;;20.03;61.77;96495.25;10622453;27;20228;-65
2023/05/21 18:33:32;;;;;;;10.55;6.53;;;;;;;19.97;62.26;96496.13;10622106;27;20627;-64
2023/05/21 18:38:32;;;;;;;7.80;6.40;;;;;;;19.81;62.99;96510.78;10622377;27;20197;-64
2023/05/21 18:43:33;;;;;;;10.18;6.65;;;;;;;19.67;63.99;96522.56;10621136;27;20185;-64
2023/05/21 18:48:33;;;;;;;9.38;6.90;;;;;;;19.34;65.93;96537.78;10622001;27;20216;-64
2023/05/21 18:53:34;;;;;;;8.80;7.47;;;;;;;19.17;66.84;96540.16;10621698;27;20197;-64
2023/05/21 18:58:34;;;;;;;8.45;6.45;;;;;;;19.09;65.98;96527.13;10621394;27;20618;-64
2023/05/21 19:03:35;;;;;;;10.32;6.45;;;;;;;18.87;67.00;96522.16;10621439;27;20185;-64
2023/05/21 19:08:35;;;;;;;7.88;7.05;;;;;;;18.91;66.05;96509.25;10620701;27;20225;-64
2023/05/21 19:13:35;;;;;;;8.68;6.88;;;;;;;18.66;69.69;96562.25;10620964;27;20211;-64
2023/05/21 19:18:36;;;;;;;9.13;8.00;;;;;;;17.73;75.34;96595.09;10620709;27;20268;-65
2023/05/21 19:23:36;;;;;;;10.30;8.50;;;;;;;17.08;80.52;96585.88;10620522;27;20549;-64
2023/05/21 19:28:36;;;;;;;11.32;8.38;;;;;;;16.58;84.39;96585.28;10620482;27;20228;-65
2023/05/21 19:33:37;;;;;;;13.00;8.40;;;;;;;16.34;88.87;96592.72;10620080;27;20192;-65
2023/05/21 19:38:38;;;;;;;9.05;7.90;;;;;;;16.25;91.05;96585.97;10620303;27;20213;-64
2023/05/21 19:43:38;;;;;;;9.73;8.73;;;;;;;16.09;93.79;96583.63;10619873;27;20196;-63
2023/05/21 19:48:38;;;;;;;12.73;8.30;;;;;;;15.93;95.87;96585.56;10620135;27;20741;-65
2023/05/21 19:53:39;;;;;;;14.70;9.10;;;;;;;15.67;99.64;96591.47;10620267;27;20189;-67
2023/05/21 19:58:39;;;;;;;13.55;9.43;;;;;;;15.65;100.00;96596.94;10619404;28;20259;-64
2023/05/21 20:03:41;;;;;;;10.90;8.95;;;;;;;15.47;100.00;96592.09;10619709;28;20605;-65
2023/05/21 20:08:41;;;;;;;11.60;9.13;;;;;;;15.29;100.00;96597.84;10619236;28;20315;-64
2023/05/21 20:13:47;;;;;;;15.85;10.02;;;;;;;15.01;100.00;96589.84;10622429;28;20294;-66
2023/05/21 20:18:48;;;;;;;13.77;10.65;;;;;;;14.94;100.00;96587.13;10579098;28;20201;-64
2023/05/21 20:23:49;;;;;;;14.27;9.38;;;;;;;14.66;100.00;96578.31;10588475;28;20251;-66
2023/05/21 20:28:49;;;;;;;13.35;9.88;;;;;;;14.60;100.00;96587.75;10580599;28;20648;-66
2023/05/21 20:33:49;;;;;;;10.95;9.85;;;;;;;14.52;100.00;96579.97;10611767;28;20677;-65
2023/05/21 20:38:50;;;;;;;13.95;9.45;;;;;;;14.43;100.00;96587.16;10594869;28;20293;-64
2023/05/21 20:43:51;;;;;;;12.45;9.45;;;;;;;14.50;100.00;96590.69;10578766;28;20197;-66
2023/05/21 20:48:51;;;;;;;12.73;9.80;;;;;;;14.43;100.00;96589.78;10576532;28;20221;-66
2023/05/21 20:53:52;;;;;;;10.43;9.27;;;;;;;14.30;100.00;96589.59;10576523;28;20623;-67
2023/05/21 20:58:52;;;;;;;15.65;10.20;;;;;;;14.12;100.00;96585.53;10576257;28;20261;-66
2023/05/21 21:03:52;;;;;;;15.45;10.32;;;;;;;14.10;100.00;96592.78;10578888;28;20678;-66
2023/05/21 21:08:54;;;;;;;15.00;9.52;;;;;;;14.16;100.00;96589.41;10583668;28;20758;-66
2023/05/21 21:13:54;;;;;;;12.07;9.52;;;;;;;13.93;100.00;96596.59;10583979;28;20189;-67
2023/05/21 21:18:54;;;;;;;13.15;9.73;;;;;;;13.71;100.00;96599.94;10583703;28;20304;-66
2023/05/21 21:23:55;;;;;;;16.15;9.68;;;;;;;13.83;100.00;96600.31;10583466;28;20272;-67
2023/05/21 21:28:55;;;;;;;13.23;9.80;;;;;;;13.95;100.00;96600.69;10583245;28;20229;-67
2023/05/21 21:33:56;;;;;;;12.65;8.68;;;;;;;14.02;100.00;96598.16;10582875;28;20200;-67
2023/05/21 21:38:57;;;;;;;11.98;9.27;;;;;;;14.01;100.00;96589.44;10582808;28;20210;-67
2023/05/21 21:43:57;;;;;;;15.32;8.75;;;;;;;14.19;100.00;96598.78;10582715;28;20281;-66
2023/05/21 21:48:57;;;;;;;11.30;8.25;;;;;;;14.46;100.00;96592.06;10581748;28;20230;-66
2023/05/21 21:53:58;;;;;;;12.38;8.13;;;;;;;14.32;100.00;96593.69;10582231;28;20185;-66
2023/05/21 21:58:58;;;;;;;13.65;8.88;;;;;;;14.22;100.00;96591.31;10582030;28;20266;-66
2023/05/21 22:03:58;;;;;;;13.27;8.25;;;;;;;14.21;100.00;96584.44;10581889;28;20190;-66
2023/05/21 22:08:59;;;;;;;11.20;7.72;;;;;;;14.23;100.00;96587.69;10581908;28;20221;-66
2023/05/21 22:13:59;;;;;;;13.63;9.13;;;;;;;14.29;100.00;96575.63;10580772;28;20200;-66
2023/05/21 22:19:00;;;;;;;11.27;8.00;;;;;;;14.14;100.00;96570.34;10580809;28;20232;-67
2023/05/21 22:24:01;;;;;;;11.85;7.72;;;;;;;14.08;100.00;96586.88;10581216;28;20205;-66
2023/05/21 22:29:01;;;;;;;12.38;8.18;;;;;;;14.11;100.00;96575.19;10580698;28;20245;-67
2023/05/21 22:34:02;;;;;;;10.13;7.45;;;;;;;14.17;100.00;96577.09;10581035;28;20225;-66
2023/05/21 22:39:02;;;;;;;9.05;7.18;;;;;;;14.16;100.00;96575.44;10580159;28;20616;-66
2023/05/21 22:44:02;;;;;;;17.00;7.93;;;;;;;14.09;100.00;96578.81;10580376;28;20605;-66
2023/05/21 22:49:03;;;;;;;18.85;7.10;;;;;;;14.39;100.00;96573.50;10579485;28;20275;-67
2023/05/21 22:54:03;;;;;;;11.00;7.03;;;;;;;14.31;100.00;96572.81;10579900;28;20231;-66